Apple Valley, Minnesota
Current Conditions -  °F | °C
As of 4:01 PM on Wednesday 28 Jan 2015 (Local Time) from KLVN Reporting Station
Haze Haze  
Wind Chill: 23°   Ceiling: Unl
Heat Index: 30°   Visibility: 4mi
Dew Point: 28°   Wind: 7mph
Humidity: 93%   Direction: 140°SE
Pressure: 29.78"   Gusts: NA
Location:  44.74°N, 93.22°W
Report Text: KLVN 282201Z AUTO 14006KT 4SM BR SCT011 M01/M02 A2978 RMK AO2
Loading
Personal Weather Stations






























Interactive Weather Map New forecast layout! Learn more

10-Day Weather Forecast

Advertisements
Track Severe Weather on mobile